Time;durP1;ratioP1;P1;durP2;ratioP2;P2;SDS_P1;SDS_P2;PMS_P1;PMS_P2;Temp;Humidity;BMP_temperature;BMP_pressure;BME280_temperature;BME280_humidity;BME280_pressure;Samples;Min_cycle;Max_cycle;Signal;HPM_P1;HPM_P2
2021/11/23 00:00:50;;;;;;;1999.90;999.90;;;;;;;;;;4996775;28;20058;-83
2021/11/23 00:03:17;;;;;;;1999.90;999.90;;;;;;;;;;5000860;28;20037;-82
2021/11/23 00:05:44;;;;;;;1999.90;999.90;;;;;;;;;;4985129;28;20104;-84
2021/11/23 00:08:10;;;;;;;1999.90;999.90;;;;;;;;;;5006793;28;20065;-84
2021/11/23 00:10:37;;;;;;;1999.90;999.90;;;;;;;;;;4965740;28;20124;-84
2021/11/23 00:13:04;;;;;;;1999.90;999.90;;;;;;;;;;4981854;28;20034;-85
2021/11/23 00:15:30;;;;;;;1999.90;999.90;;;;;;;;;;4981587;28;20038;-84
2021/11/23 00:17:55;;;;;;;1999.90;999.90;;;;;;;;;;4992172;28;20042;-85
2021/11/23 00:20:23;;;;;;;1999.90;999.90;;;;;;;;;;4997550;28;20042;-84
2021/11/23 00:22:48;;;;;;;1999.90;999.90;;;;;;;;;;5000898;28;20411;-84
2021/11/23 00:25:14;;;;;;;1999.90;999.90;;;;;;;;;;4985095;28;20040;-84
2021/11/23 00:27:39;;;;;;;1999.90;999.90;;;;;;;;;;5000960;28;20486;-84
2021/11/23 00:30:05;;;;;;;1999.90;999.90;;;;;;;;;;4984476;28;20520;-85
2021/11/23 00:32:30;;;;;;;1999.90;999.90;;;;;;;;;;5017017;28;20453;-84
2021/11/23 00:34:56;;;;;;;1999.90;999.90;;;;;;;;;;5017140;28;20053;-84
2021/11/23 00:37:22;;;;;;;1999.90;999.90;;;;;;;;;;5013418;28;20046;-85
2021/11/23 00:39:48;;;;;;;1999.90;999.90;;;;;;;;;;4981378;28;20172;-85
2021/11/23 00:42:13;;;;;;;1999.90;999.90;;;;;;;;;;4988206;28;20038;-84
2021/11/23 00:44:39;;;;;;;1999.90;999.90;;;;;;;;;;4980946;28;20041;-85
2021/11/23 00:47:04;;;;;;;1999.90;999.90;;;;;;;;;;4983583;28;20381;-85
2021/11/23 00:49:30;;;;;;;1999.90;999.90;;;;;;;;;;4984175;28;20041;-85
2021/11/23 00:51:55;;;;;;;1999.90;999.90;;;;;;;;;;5017361;28;20104;-85
2021/11/23 00:54:21;;;;;;;1999.90;999.90;;;;;;;;;;5000872;28;20125;-85
2021/11/23 00:56:47;;;;;;;1999.90;999.90;;;;;;;;;;5013446;28;20060;-85
2021/11/23 00:59:14;;;;;;;1999.90;999.90;;;;;;;;;;4980909;28;20110;-85
2021/11/23 01:01:39;;;;;;;1999.90;999.90;;;;;;;;;;4997406;28;20038;-85
2021/11/23 01:04:06;;;;;;;1999.90;999.90;;;;;;;;;;4996977;28;20037;-85
2021/11/23 01:06:31;;;;;;;1999.90;999.90;;;;;;;;;;5013266;28;20038;-85
2021/11/23 01:08:56;;;;;;;1999.90;999.90;;;;;;;;;;5014423;28;20046;-85
2021/11/23 01:11:22;;;;;;;1999.90;999.90;;;;;;;;;;4983746;28;20080;-85
2021/11/23 01:13:48;;;;;;;1999.90;999.90;;;;;;;;;;4999894;28;20060;-84
2021/11/23 01:16:15;;;;;;;1999.90;999.90;;;;;;;;;;4983795;28;20038;-85
2021/11/23 01:18:42;;;;;;;1999.90;999.90;;;;;;;;;;5017074;28;20045;-85
2021/11/23 01:21:09;;;;;;;1999.90;999.90;;;;;;;;;;4983368;28;20029;-85
2021/11/23 01:23:35;;;;;;;1999.90;999.90;;;;;;;;;;5016860;28;20041;-85
2021/11/23 01:26:02;;;;;;;1999.90;999.90;;;;;;;;;;4983915;28;20088;-85
2021/11/23 01:28:28;;;;;;;1999.90;999.90;;;;;;;;;;4999715;28;20184;-85
2021/11/23 01:30:54;;;;;;;1999.90;999.90;;;;;;;;;;4983073;28;20052;-85
2021/11/23 01:33:19;;;;;;;1999.90;999.90;;;;;;;;;;5015892;28;20571;-85
2021/11/23 01:35:45;;;;;;;1999.90;999.90;;;;;;;;;;5016118;28;20037;-84
2021/11/23 01:38:12;;;;;;;1999.90;999.90;;;;;;;;;;4999298;28;20048;-85
2021/11/23 01:40:43;;;;;;;1999.90;999.90;;;;;;;;;;4984359;28;20072;-85
2021/11/23 01:43:09;;;;;;;1999.90;999.90;;;;;;;;;;4999864;28;20116;-85
2021/11/23 01:45:37;;;;;;;1999.90;999.90;;;;;;;;;;4983439;28;20045;-85
2021/11/23 01:48:03;;;;;;;1999.90;999.90;;;;;;;;;;4983863;28;20041;-85
2021/11/23 01:50:30;;;;;;;1999.90;999.90;;;;;;;;;;4983578;28;20104;-85
2021/11/23 01:52:57;;;;;;;1999.90;999.90;;;;;;;;;;5015649;28;20120;-85
2021/11/23 01:55:23;;;;;;;1999.90;999.90;;;;;;;;;;5016556;28;20033;-86
2021/11/23 01:57:50;;;;;;;1999.90;999.90;;;;;;;;;;4999101;28;20034;-85
2021/11/23 02:00:16;;;;;;;1999.90;999.90;;;;;;;;;;4998766;28;20068;-85
2021/11/23 02:02:42;;;;;;;1999.90;999.90;;;;;;;;;;4999145;28;20045;-85
2021/11/23 02:05:10;;;;;;;1999.90;999.90;;;;;;;;;;4999909;28;20048;-85
2021/11/23 02:07:36;;;;;;;1999.90;999.90;;;;;;;;;;4992848;28;20065;-85
2021/11/23 02:10:01;;;;;;;1999.90;999.90;;;;;;;;;;4996082;28;20488;-85
2021/11/23 02:12:27;;;;;;;1999.90;999.90;;;;;;;;;;4979596;28;20115;-85
2021/11/23 02:14:53;;;;;;;1999.90;999.90;;;;;;;;;;4999519;28;20041;-85
2021/11/23 02:17:20;;;;;;;1999.90;999.90;;;;;;;;;;4983129;28;20120;-85
2021/11/23 02:19:46;;;;;;;1999.90;999.90;;;;;;;;;;5015365;28;20037;-85
2021/11/23 02:22:11;;;;;;;1999.90;999.90;;;;;;;;;;4982848;28;20045;-85
2021/11/23 02:24:38;;;;;;;1999.90;999.90;;;;;;;;;;5014307;28;20048;-85
2021/11/23 02:27:04;;;;;;;1999.90;999.90;;;;;;;;;;4998771;28;20041;-84
2021/11/23 02:29:30;;;;;;;1999.90;999.90;;;;;;;;;;5014318;28;20042;-85
2021/11/23 02:31:55;;;;;;;1999.90;999.90;;;;;;;;;;4980177;28;20117;-84
2021/11/23 02:34:21;;;;;;;1999.90;999.90;;;;;;;;;;4995119;28;20041;-84
2021/11/23 02:36:46;;;;;;;1999.90;999.90;;;;;;;;;;4979200;28;20108;-85
2021/11/23 02:39:13;;;;;;;1999.90;999.90;;;;;;;;;;4995439;28;20448;-87
2021/11/23 02:41:39;;;;;;;1999.90;999.90;;;;;;;;;;4995213;28;20038;-86
2021/11/23 02:44:06;;;;;;;1999.90;999.90;;;;;;;;;;5007950;28;20038;-84
2021/11/23 02:46:34;;;;;;;1999.90;999.90;;;;;;;;;;4983655;28;20042;-86
2021/11/23 02:49:00;;;;;;;1999.90;999.90;;;;;;;;;;4996068;28;20034;-86
2021/11/23 02:51:28;;;;;;;1999.90;999.90;;;;;;;;;;4995519;28;20108;-86
2021/11/23 02:53:53;;;;;;;1999.90;999.90;;;;;;;;;;4995362;28;20029;-87
2021/11/23 02:56:20;;;;;;;1999.90;999.90;;;;;;;;;;4995321;28;20033;-85
2021/11/23 02:58:47;;;;;;;1999.90;999.90;;;;;;;;;;4995507;28;20057;-85
2021/11/23 03:01:15;;;;;;;1999.90;999.90;;;;;;;;;;4983853;28;20087;-86
2021/11/23 03:03:42;;;;;;;1999.90;999.90;;;;;;;;;;4979122;28;20566;-86
2021/11/23 03:06:13;;;;;;;1999.90;999.90;;;;;;;;;;5011284;28;20427;-86
2021/11/23 03:08:38;;;;;;;1999.90;999.90;;;;;;;;;;5015058;28;20041;-86
2021/11/23 03:11:05;;;;;;;1999.90;999.90;;;;;;;;;;4981833;28;20064;-85
2021/11/23 03:13:30;;;;;;;1999.90;999.90;;;;;;;;;;4981523;28;20042;-85
2021/11/23 03:15:56;;;;;;;1999.90;999.90;;;;;;;;;;5014451;28;20049;-85
2021/11/23 03:18:23;;;;;;;1999.90;999.90;;;;;;;;;;4986739;28;20041;-85
2021/11/23 03:20:50;;;;;;;1999.90;999.90;;;;;;;;;;4994582;28;20073;-85
2021/11/23 03:23:16;;;;;;;1999.90;999.90;;;;;;;;;;4994947;28;20030;-85
2021/11/23 03:25:43;;;;;;;1999.90;999.90;;;;;;;;;;4978483;28;20459;-85
2021/11/23 03:28:08;;;;;;;1999.90;999.90;;;;;;;;;;4978471;28;20037;-85
2021/11/23 03:30:35;;;;;;;1999.90;999.90;;;;;;;;;;4978327;28;20041;-85
2021/11/23 03:33:02;;;;;;;1999.90;999.90;;;;;;;;;;5007585;28;20041;-84
2021/11/23 03:35:30;;;;;;;1999.90;999.90;;;;;;;;;;5001383;28;20079;-85
2021/11/23 03:37:56;;;;;;;1999.90;999.90;;;;;;;;;;5001101;28;20653;-85
2021/11/23 03:40:23;;;;;;;1999.90;999.90;;;;;;;;;;5001360;28;20029;-86
2021/11/23 03:42:49;;;;;;;1999.90;999.90;;;;;;;;;;4981550;28;20022;-86
2021/11/23 03:45:14;;;;;;;1999.90;999.90;;;;;;;;;;4981624;28;20099;-86
2021/11/23 03:47:40;;;;;;;1999.90;999.90;;;;;;;;;;4981648;28;20041;-86
2021/11/23 03:50:07;;;;;;;1999.90;999.90;;;;;;;;;;5014022;28;20077;-86
2021/11/23 03:52:33;;;;;;;1999.90;999.90;;;;;;;;;;4994278;28;20030;-86
2021/11/23 03:54:58;;;;;;;1999.90;999.90;;;;;;;;;;4994678;28;20419;-87
2021/11/23 03:57:24;;;;;;;1999.90;999.90;;;;;;;;;;4978425;28;20037;-87
2021/11/23 03:59:49;;;;;;;1999.90;999.90;;;;;;;;;;4978492;28;20041;-88
2021/11/23 04:02:16;;;;;;;1999.90;999.90;;;;;;;;;;4962278;28;20045;-88
2021/11/23 04:04:42;;;;;;;1999.90;999.90;;;;;;;;;;4982021;28;20029;-87
2021/11/23 04:07:07;;;;;;;1999.90;999.90;;;;;;;;;;5014073;28;20034;-87
2021/11/23 04:09:33;;;;;;;1999.90;999.90;;;;;;;;;;4981217;28;20069;-88
2021/11/23 04:11:58;;;;;;;1999.90;999.90;;;;;;;;;;4982038;28;20107;-87
2021/11/23 04:14:23;;;;;;;1999.90;999.90;;;;;;;;;;4980929;28;20103;-87
2021/11/23 04:16:49;;;;;;;1999.90;999.90;;;;;;;;;;5014060;28;20086;-86
2021/11/23 04:19:15;;;;;;;1999.90;999.90;;;;;;;;;;4981869;28;20049;-87
2021/11/23 04:21:40;;;;;;;1999.90;999.90;;;;;;;;;;5013654;28;20029;-87
2021/11/23 04:24:06;;;;;;;1999.90;999.90;;;;;;;;;;5013650;28;20068;-85
2021/11/23 04:26:31;;;;;;;1999.90;999.90;;;;;;;;;;4997493;28;20119;-87
2021/11/23 04:28:57;;;;;;;1999.90;999.90;;;;;;;;;;4997205;28;20084;-86
2021/11/23 04:31:22;;;;;;;1999.90;999.90;;;;;;;;;;5013388;28;20092;-86
2021/11/23 04:33:48;;;;;;;1999.90;999.90;;;;;;;;;;5004698;28;20037;-85
2021/11/23 04:36:14;;;;;;;1999.90;999.90;;;;;;;;;;5013725;28;20044;-87
2021/11/23 04:38:40;;;;;;;1999.90;999.90;;;;;;;;;;5014047;28;20041;-86
2021/11/23 04:41:05;;;;;;;1999.90;999.90;;;;;;;;;;4997664;28;20055;-85
2021/11/23 04:43:31;;;;;;;1999.90;999.90;;;;;;;;;;4996576;28;20034;-86
2021/11/23 04:45:58;;;;;;;1999.90;999.90;;;;;;;;;;5013643;28;20037;-86
2021/11/23 04:48:24;;;;;;;1999.90;999.90;;;;;;;;;;5016597;28;20451;-87
2021/11/23 04:50:51;;;;;;;1999.90;999.90;;;;;;;;;;5000701;28;20044;-86
2021/11/23 04:53:16;;;;;;;1999.90;999.90;;;;;;;;;;4984632;28;20078;-86
2021/11/23 04:55:42;;;;;;;1999.90;999.90;;;;;;;;;;5017277;28;20029;-86
2021/11/23 04:58:09;;;;;;;1999.90;999.90;;;;;;;;;;4999478;28;20041;-86
2021/11/23 05:00:34;;;;;;;1999.90;999.90;;;;;;;;;;5006781;28;20025;-87
2021/11/23 05:02:59;;;;;;;1999.90;999.90;;;;;;;;;;5002011;28;20064;-86
2021/11/23 05:05:26;;;;;;;1999.90;999.90;;;;;;;;;;4980465;28;20176;-86
2021/11/23 05:07:51;;;;;;;1999.90;999.90;;;;;;;;;;4980951;28;20488;-87
2021/11/23 05:10:17;;;;;;;1999.90;999.90;;;;;;;;;;4997240;28;20041;-86
2021/11/23 05:12:42;;;;;;;1999.90;999.90;;;;;;;;;;4983671;28;20042;-87
2021/11/23 05:15:08;;;;;;;1999.90;999.90;;;;;;;;;;4999947;28;20042;-86
2021/11/23 05:17:37;;;;;;;1999.90;999.90;;;;;;;;;;5000714;28;20050;-87
2021/11/23 05:20:04;;;;;;;1999.90;999.90;;;;;;;;;;5000026;28;20033;-87
2021/11/23 05:22:30;;;;;;;1999.90;999.90;;;;;;;;;;5016319;28;20075;-86
2021/11/23 05:24:56;;;;;;;1999.90;999.90;;;;;;;;;;5016791;28;20463;-86
2021/11/23 05:27:21;;;;;;;1999.90;999.90;;;;;;;;;;5010609;28;20062;-86
2021/11/23 05:29:47;;;;;;;1999.90;999.90;;;;;;;;;;4989501;28;20044;-86
2021/11/23 05:32:12;;;;;;;1999.90;999.90;;;;;;;;;;4996987;28;20045;-86
2021/11/23 05:34:38;;;;;;;1999.90;999.90;;;;;;;;;;4998432;28;20476;-86
2021/11/23 05:37:04;;;;;;;1999.90;999.90;;;;;;;;;;4984064;28;20033;-86
2021/11/23 05:39:30;;;;;;;1999.90;999.90;;;;;;;;;;4997364;28;20044;-83
2021/11/23 05:41:56;;;;;;;1999.90;999.90;;;;;;;;;;5000232;28;20037;-89
2021/11/23 05:44:22;;;;;;;1999.90;999.90;;;;;;;;;;5000280;28;20083;-89
2021/11/23 05:46:47;;;;;;;1999.90;999.90;;;;;;;;;;4996523;28;20045;-89
2021/11/23 05:49:15;;;;;;;1999.90;999.90;;;;;;;;;;4981318;28;20044;-90
2021/11/23 05:51:41;;;;;;;1999.90;999.90;;;;;;;;;;4981352;28;20034;-88
2021/11/23 05:54:09;;;;;;;1999.90;999.90;;;;;;;;;;4981287;28;20042;-90
2021/11/23 05:56:36;;;;;;;1999.90;999.90;;;;;;;;;;4997482;28;20113;-89
2021/11/23 05:59:04;;;;;;;1999.90;999.90;;;;;;;;;;4979546;28;20112;-88
2021/11/23 06:01:30;;;;;;;1999.90;999.90;;;;;;;;;;4981066;28;20033;-90
2021/11/23 06:04:02;;;;;;;1999.90;999.90;;;;;;;;;;4984582;28;20037;-91
2021/11/23 06:06:31;;;;;;;1999.90;999.90;;;;;;;;;;5000577;28;20034;-90
2021/11/23 06:08:56;;;;;;;1999.90;999.90;;;;;;;;;;5016660;28;20455;-91
2021/11/23 06:11:25;;;;;;;1999.90;999.90;;;;;;;;;;4980683;28;20030;-93
2021/11/23 06:13:52;;;;;;;1999.90;999.90;;;;;;;;;;4980648;28;20405;-93
2021/11/23 06:16:21;;;;;;;1999.90;999.90;;;;;;;;;;4981390;28;20029;-93
2021/11/23 06:18:48;;;;;;;1999.90;999.90;;;;;;;;;;4997111;28;20576;-92
2021/11/23 06:21:15;;;;;;;1999.90;999.90;;;;;;;;;;4980775;28;20029;-93
2021/11/23 06:23:43;;;;;;;1999.90;999.90;;;;;;;;;;4977437;28;20049;-93
2021/11/23 06:26:10;;;;;;;1999.90;999.90;;;;;;;;;;4980924;28;20033;-92
2021/11/23 06:28:38;;;;;;;1999.90;999.90;;;;;;;;;;4980450;28;20046;-92
2021/11/23 06:31:04;;;;;;;1999.90;999.90;;;;;;;;;;5012966;28;20023;-92
2021/11/23 06:33:33;;;;;;;1999.90;999.90;;;;;;;;;;4980464;28;20056;-92
2021/11/23 06:36:04;;;;;;;1999.90;999.90;;;;;;;;;;4996608;28;20026;-92
2021/11/23 06:38:33;;;;;;;1999.90;999.90;;;;;;;;;;4980656;28;20045;-92
2021/11/23 06:41:02;;;;;;;1999.90;999.90;;;;;;;;;;4993026;28;20488;-91
2021/11/23 06:43:30;;;;;;;1999.90;999.90;;;;;;;;;;4996250;28;20037;-92
2021/11/23 06:45:58;;;;;;;1999.90;999.90;;;;;;;;;;5002154;28;20634;-93
2021/11/23 06:48:26;;;;;;;1999.90;999.90;;;;;;;;;;4999871;28;20065;-93
2021/11/23 06:50:53;;;;;;;1999.90;999.90;;;;;;;;;;4998212;28;20037;-85
2021/11/23 06:53:21;;;;;;;1999.90;999.90;;;;;;;;;;4999032;28;20037;-87
2021/11/23 06:55:47;;;;;;;1999.90;999.90;;;;;;;;;;5015333;28;20044;-89
2021/11/23 06:58:13;;;;;;;1999.90;999.90;;;;;;;;;;4982165;28;20038;-88
2021/11/23 07:00:40;;;;;;;1999.90;999.90;;;;;;;;;;5014876;28;20369;-84
2021/11/23 07:03:05;;;;;;;1999.90;999.90;;;;;;;;;;4995837;28;20094;-84
2021/11/23 07:05:31;;;;;;;1999.90;999.90;;;;;;;;;;4978882;28;20041;-85
2021/11/23 07:07:57;;;;;;;1999.90;999.90;;;;;;;;;;4987976;28;20064;-85
2021/11/23 07:10:23;;;;;;;1999.90;999.90;;;;;;;;;;4997273;28;20021;-86
2021/11/23 07:12:49;;;;;;;1999.90;999.90;;;;;;;;;;4981878;28;20038;-85
2021/11/23 07:15:15;;;;;;;1999.90;999.90;;;;;;;;;;4998087;28;20076;-84
2021/11/23 07:17:41;;;;;;;1999.90;999.90;;;;;;;;;;4982083;28;20133;-84
2021/11/23 07:20:07;;;;;;;1999.90;999.90;;;;;;;;;;5014051;28;20033;-88
2021/11/23 07:22:32;;;;;;;1999.90;999.90;;;;;;;;;;5009427;28;20042;-82
2021/11/23 07:24:58;;;;;;;1999.90;999.90;;;;;;;;;;4996422;28;20029;-83
2021/11/23 07:27:24;;;;;;;1999.90;999.90;;;;;;;;;;4997514;28;20091;-86
2021/11/23 07:29:50;;;;;;;1999.90;999.90;;;;;;;;;;5013825;28;20084;-85
2021/11/23 07:32:16;;;;;;;1999.90;999.90;;;;;;;;;;5010932;28;20050;-86
2021/11/23 07:34:42;;;;;;;1999.90;999.90;;;;;;;;;;4978022;28;20038;-82
2021/11/23 07:37:07;;;;;;;1999.90;999.90;;;;;;;;;;4993748;28;20423;-82
2021/11/23 07:39:34;;;;;;;1999.90;999.90;;;;;;;;;;4993009;28;20044;-83
2021/11/23 07:41:59;;;;;;;1999.90;999.90;;;;;;;;;;4993036;28;20528;-83
2021/11/23 07:44:25;;;;;;;1999.90;999.90;;;;;;;;;;4976930;28;20045;-81
2021/11/23 07:46:50;;;;;;;1999.90;999.90;;;;;;;;;;4993325;28;20050;-83
2021/11/23 07:49:16;;;;;;;1999.90;999.90;;;;;;;;;;4993281;28;20097;-81
2021/11/23 07:51:42;;;;;;;1999.90;999.90;;;;;;;;;;4993454;28;20058;-83
2021/11/23 07:54:07;;;;;;;1999.90;999.90;;;;;;;;;;4994484;28;20092;-83
2021/11/23 07:56:34;;;;;;;1999.90;999.90;;;;;;;;;;4978118;28;20072;-83
2021/11/23 07:59:00;;;;;;;1999.90;999.90;;;;;;;;;;4993917;28;20046;-84
2021/11/23 08:01:26;;;;;;;1999.90;999.90;;;;;;;;;;5003814;28;20061;-82
2021/11/23 08:03:51;;;;;;;1999.90;999.90;;;;;;;;;;4994125;28;20571;-82
2021/11/23 08:06:18;;;;;;;1999.90;999.90;;;;;;;;;;4994512;28;20038;-82
2021/11/23 08:08:43;;;;;;;1999.90;999.90;;;;;;;;;;4981115;28;20041;-83
2021/11/23 08:11:10;;;;;;;1999.90;999.90;;;;;;;;;;4997319;28;20029;-83
2021/11/23 08:13:36;;;;;;;1999.90;999.90;;;;;;;;;;4997274;28;20064;-82
2021/11/23 08:16:03;;;;;;;1999.90;999.90;;;;;;;;;;4981231;28;20476;-83
2021/11/23 08:18:29;;;;;;;1999.90;999.90;;;;;;;;;;4997292;28;20034;-81
2021/11/23 08:20:56;;;;;;;1999.90;999.90;;;;;;;;;;4995906;28;20097;-87
2021/11/23 08:23:21;;;;;;;1999.90;999.90;;;;;;;;;;4998546;28;20487;-86
2021/11/23 08:25:48;;;;;;;1999.90;999.90;;;;;;;;;;5021141;28;20052;-86
2021/11/23 08:28:14;;;;;;;1999.90;999.90;;;;;;;;;;5004335;28;20040;-86
2021/11/23 08:30:39;;;;;;;1999.90;999.90;;;;;;;;;;5004786;28;20033;-84
2021/11/23 08:33:05;;;;;;;1999.90;999.90;;;;;;;;;;5020956;28;20025;-82
2021/11/23 08:35:30;;;;;;;1999.90;999.90;;;;;;;;;;5020011;28;20041;-82
2021/11/23 08:37:56;;;;;;;1999.90;999.90;;;;;;;;;;5004387;28;20094;-84
2021/11/23 08:40:21;;;;;;;1999.90;999.90;;;;;;;;;;5003933;28;20039;-84
2021/11/23 08:42:47;;;;;;;1999.90;999.90;;;;;;;;;;5003738;28;20111;-83
2021/11/23 08:45:12;;;;;;;1999.90;999.90;;;;;;;;;;5020740;28;20039;-84
2021/11/23 08:47:38;;;;;;;1999.90;999.90;;;;;;;;;;5004265;28;20032;-83
2021/11/23 08:50:05;;;;;;;1999.90;999.90;;;;;;;;;;5020496;28;20060;-85
2021/11/23 08:52:30;;;;;;;1999.90;999.90;;;;;;;;;;5036816;28;20033;-83
2021/11/23 08:54:56;;;;;;;1999.90;999.90;;;;;;;;;;5020008;28;20047;-86
2021/11/23 08:57:21;;;;;;;1999.90;999.90;;;;;;;;;;5019822;28;20033;-83
2021/11/23 08:59:47;;;;;;;1999.90;999.90;;;;;;;;;;5003731;28;20450;-82
2021/11/23 09:02:13;;;;;;;1999.90;999.90;;;;;;;;;;5000999;28;20083;-82
2021/11/23 09:04:40;;;;;;;1999.90;999.90;;;;;;;;;;5016937;28;20124;-86
2021/11/23 09:07:08;;;;;;;1999.90;999.90;;;;;;;;;;5000862;28;20037;-84
2021/11/23 09:09:35;;;;;;;1999.90;999.90;;;;;;;;;;4984758;28;20128;-88
2021/11/23 09:12:03;;;;;;;1999.90;999.90;;;;;;;;;;5000847;28;20529;-86
2021/11/23 09:14:29;;;;;;;1999.90;999.90;;;;;;;;;;4984791;28;20448;-84
2021/11/23 09:16:56;;;;;;;1999.90;999.90;;;;;;;;;;4984415;28;20026;-84
2021/11/23 09:19:21;;;;;;;1999.90;999.90;;;;;;;;;;4984038;28;20500;-84
2021/11/23 09:21:47;;;;;;;1999.90;999.90;;;;;;;;;;5000401;28;20044;-85
2021/11/23 09:24:12;;;;;;;1999.90;999.90;;;;;;;;;;4983970;28;20037;-81
2021/11/23 09:26:38;;;;;;;1999.90;999.90;;;;;;;;;;5016341;28;20037;-85
2021/11/23 09:29:03;;;;;;;1999.90;999.90;;;;;;;;;;5016419;28;20476;-83
2021/11/23 09:31:29;;;;;;;1999.90;999.90;;;;;;;;;;5016158;28;20025;-85
2021/11/23 09:33:54;;;;;;;1999.90;999.90;;;;;;;;;;5015765;28;20037;-82
2021/11/23 09:36:20;;;;;;;1999.90;999.90;;;;;;;;;;4999692;28;20049;-83
2021/11/23 09:38:45;;;;;;;1999.90;999.90;;;;;;;;;;4983536;28;20036;-82
2021/11/23 09:41:12;;;;;;;1999.90;999.90;;;;;;;;;;5015561;28;20052;-87
2021/11/23 09:43:38;;;;;;;1999.90;999.90;;;;;;;;;;4999772;28;20045;-83
2021/11/23 09:46:05;;;;;;;1999.90;999.90;;;;;;;;;;5000470;28;20033;-85
2021/11/23 09:48:30;;;;;;;1999.90;999.90;;;;;;;;;;4983965;28;20038;-82
2021/11/23 09:50:56;;;;;;;1999.90;999.90;;;;;;;;;;5015470;28;20403;-83
2021/11/23 09:53:22;;;;;;;1999.90;999.90;;;;;;;;;;4983228;28;20037;-83
2021/11/23 09:55:47;;;;;;;1999.90;999.90;;;;;;;;;;5015472;28;20030;-84
2021/11/23 09:58:13;;;;;;;1999.90;999.90;;;;;;;;;;4983167;28;20033;-84
2021/11/23 10:00:45;;;;;;;1999.90;999.90;;;;;;;;;;4983120;28;20021;-82
2021/11/23 10:03:12;;;;;;;1999.90;999.90;;;;;;;;;;4983575;28;20239;-84
2021/11/23 10:05:40;;;;;;;1999.90;999.90;;;;;;;;;;4998682;28;20029;-82
2021/11/23 10:08:11;;;;;;;1999.90;999.90;;;;;;;;;;5015615;28;20129;-82
2021/11/23 10:10:42;;;;;;;1999.90;999.90;;;;;;;;;;4999174;28;20034;-84
2021/11/23 10:13:07;;;;;;;1999.90;999.90;;;;;;;;;;4999531;28;20084;-83
2021/11/23 10:15:35;;;;;;;1999.90;999.90;;;;;;;;;;4998972;28;20025;-84
2021/11/23 10:18:08;;;;;;;1999.90;999.90;;;;;;;;;;4983379;28;20119;-84
2021/11/23 10:20:43;;;;;;;1999.90;999.90;;;;;;;;;;5015130;28;20029;-82
2021/11/23 10:23:37;;;;;;;1999.90;999.90;;;;;;;;;;4980253;28;20029;-83
2021/11/23 10:26:18;;;;;;;1999.90;999.90;;;;;;;;;;4995256;28;20120;-84
2021/11/23 10:28:48;;;;;;;1999.90;999.90;;;;;;;;;;4980336;28;20046;-85
2021/11/23 10:31:14;;;;;;;1999.90;999.90;;;;;;;;;;4979644;28;20030;-84
2021/11/23 10:33:39;;;;;;;1999.90;999.90;;;;;;;;;;4979042;28;20042;-84
2021/11/23 10:36:06;;;;;;;1999.90;999.90;;;;;;;;;;4979032;28;20036;-84
2021/11/23 10:38:32;;;;;;;1999.90;999.90;;;;;;;;;;4979374;28;20033;-84
2021/11/23 10:40:58;;;;;;;1999.90;999.90;;;;;;;;;;4978810;28;20117;-82
2021/11/23 10:43:23;;;;;;;1999.90;999.90;;;;;;;;;;4978653;28;20515;-83
2021/11/23 10:45:53;;;;;;;1999.90;999.90;;;;;;;;;;4978657;28;20034;-84
2021/11/23 10:48:19;;;;;;;1999.90;999.90;;;;;;;;;;4979179;28;20057;-85
2021/11/23 10:51:08;;;;;;;1999.90;999.90;;;;;;;;;;4978953;28;20088;-85
2021/11/23 10:53:35;;;;;;;1999.90;999.90;;;;;;;;;;4978942;28;20061;-84
2021/11/23 10:56:11;;;;;;;1999.90;999.90;;;;;;;;;;4978666;28;20034;-82
2021/11/23 10:58:38;;;;;;;1999.90;999.90;;;;;;;;;;4979054;28;20033;-83
2021/11/23 11:01:05;;;;;;;1999.90;999.90;;;;;;;;;;4988623;28;20026;-84
2021/11/23 11:03:31;;;;;;;1999.90;999.90;;;;;;;;;;5014624;28;20041;-83
2021/11/23 11:05:56;;;;;;;1999.90;999.90;;;;;;;;;;4997860;28;20064;-83
2021/11/23 11:08:22;;;;;;;1999.90;999.90;;;;;;;;;;4997576;28;20113;-84
2021/11/23 11:10:48;;;;;;;1999.90;999.90;;;;;;;;;;4998399;28;20030;-84
2021/11/23 11:13:16;;;;;;;1999.90;999.90;;;;;;;;;;4998656;28;20042;-85
2021/11/23 11:15:48;;;;;;;1999.90;999.90;;;;;;;;;;4981616;28;20057;-85
2021/11/23 11:18:14;;;;;;;;;;;;;;;;;;4981271;28;20118;-85
2021/11/23 11:20:44;;;;;;;1999.90;999.90;;;;;;;;;;5014090;28;19960;-85
2021/11/23 11:23:14;;;;;;;1999.90;999.90;;;;;;;;;;4978673;28;20488;-85
2021/11/23 11:26:38;;;;;;;1999.90;999.90;;;;;;;;;;4978834;28;20056;-85
2021/11/23 11:28:49;;;;;;;1999.90;999.90;;;;;;;;;;5000904;28;20508;-85
2021/11/23 11:31:26;;;;;;;1999.90;999.90;;;;;;;;;;4994775;28;20030;-87
2021/11/23 11:34:27;;;;;;;1999.90;999.90;;;;;;;;;;4978559;28;20044;-85
2021/11/23 11:37:05;;;;;;;1050.88;505.92;;;;;;;;;;4977313;28;20096;-85
2021/11/23 11:39:40;;;;;;;1999.90;999.90;;;;;;;;;;4994364;28;20037;-85
2021/11/23 11:42:18;;;;;;;1999.90;999.90;;;;;;;;;;4994583;28;20045;-85
2021/11/23 11:44:48;;;;;;;1999.90;999.90;;;;;;;;;;4994527;28;20034;-84
2021/11/23 11:47:18;;;;;;;1999.90;999.90;;;;;;;;;;4995182;28;20060;-86
2021/11/23 11:49:50;;;;;;;1999.90;999.90;;;;;;;;;;4979502;28;20026;-84
2021/11/23 11:52:18;;;;;;;1999.90;999.90;;;;;;;;;;4994223;28;20034;-87
2021/11/23 11:54:45;;;;;;;1999.90;999.90;;;;;;;;;;4978293;28;20531;-84
2021/11/23 11:57:29;;;;;;;1999.90;999.90;;;;;;;;;;4995385;28;20046;-85
2021/11/23 11:59:55;;;;;;;1999.90;999.90;;;;;;;;;;4982643;28;20076;-85
2021/11/23 12:02:25;;;;;;;1999.90;999.90;;;;;;;;;;5001931;28;20435;-85
2021/11/23 12:05:00;;;;;;;1999.90;999.90;;;;;;;;;;4986315;28;20476;-86
2021/11/23 12:07:39;;;;;;;1999.90;999.90;;;;;;;;;;5001629;28;20045;-85
2021/11/23 12:10:34;;;;;;;1999.90;999.90;;;;;;;;;;5001762;28;20123;-85
2021/11/23 12:13:05;;;;;;;1999.90;999.90;;;;;;;;;;4988777;28;20041;-85
2021/11/23 12:15:50;;;;;;;1999.90;999.90;;;;;;;;;;4985751;28;20567;-85
2021/11/23 12:18:43;;;;;;;1999.90;999.90;;;;;;;;;;4985924;28;20065;-85
2021/11/23 12:21:16;;;;;;;1999.90;999.90;;;;;;;;;;5018708;28;20033;-85
2021/11/23 12:23:56;;;;;;;1999.90;999.90;;;;;;;;;;4998178;28;20418;-86
2021/11/23 12:26:32;;;;;;;1999.90;999.90;;;;;;;;;;5014267;28;20196;-84
2021/11/23 12:29:00;;;;;;;1999.90;999.90;;;;;;;;;;4997961;28;20034;-84
2021/11/23 12:31:31;;;;;;;1999.90;999.90;;;;;;;;;;4981544;28;20128;-85
2021/11/23 12:34:02;;;;;;;1999.90;999.90;;;;;;;;;;4998117;28;20067;-84
2021/11/23 12:36:31;;;;;;;1999.90;999.90;;;;;;;;;;4998316;28;20449;-85
2021/11/23 12:39:16;;;;;;;1999.90;999.90;;;;;;;;;;4981838;28;20037;-83
2021/11/23 12:41:43;;;;;;;1999.90;999.90;;;;;;;;;;4998693;28;20065;-84
2021/11/23 12:44:26;;;;;;;1999.90;999.90;;;;;;;;;;4997376;28;20037;-84
2021/11/23 12:46:59;;;;;;;1999.90;999.90;;;;;;;;;;4997956;28;20034;-84
2021/11/23 12:49:24;;;;;;;1999.90;999.90;;;;;;;;;;4997603;28;20091;-84
2021/11/23 12:51:55;;;;;;;1999.90;999.90;;;;;;;;;;4997131;28;20540;-83
2021/11/23 12:54:26;;;;;;;1999.90;999.90;;;;;;;;;;4997493;28;20038;-83
2021/11/23 12:57:11;;;;;;;1999.90;999.90;;;;;;;;;;4997407;28;20515;-84
2021/11/23 13:00:01;;;;;;;1999.90;999.90;;;;;;;;;;4999539;28;20034;-84
2021/11/23 13:02:37;;;;;;;1999.90;999.90;;;;;;;;;;4997231;28;20038;-84
2021/11/23 13:05:04;;;;;;;1999.90;999.90;;;;;;;;;;4981072;28;20515;-84
2021/11/23 13:07:30;;;;;;;1999.90;999.90;;;;;;;;;;5002165;28;20034;-84
2021/11/23 13:10:17;;;;;;;1999.90;999.90;;;;;;;;;;4983560;28;20040;-85
2021/11/23 13:12:45;;;;;;;1999.90;999.90;;;;;;;;;;5002073;28;20115;-84
2021/11/23 13:15:22;;;;;;;1999.90;999.90;;;;;;;;;;4984453;28;20037;-83
2021/11/23 13:17:51;;;;;;;1999.90;999.90;;;;;;;;;;5000472;28;20037;-85
2021/11/23 13:20:38;;;;;;;1999.90;999.90;;;;;;;;;;5000702;28;20433;-85
2021/11/23 13:23:16;;;;;;;1999.90;999.90;;;;;;;;;;5029602;28;20049;-83
2021/11/23 13:25:41;;;;;;;1999.90;999.90;;;;;;;;;;4997042;28;20531;-84
2021/11/23 13:28:09;;;;;;;1999.90;999.90;;;;;;;;;;4980657;28;20072;-84
2021/11/23 13:30:51;;;;;;;1999.90;999.90;;;;;;;;;;4980816;28;20091;-83
2021/11/23 13:33:17;;;;;;;1999.90;999.90;;;;;;;;;;4981145;28;20188;-83
2021/11/23 13:35:54;;;;;;;1999.90;999.90;;;;;;;;;;4996128;28;20559;-84
2021/11/23 13:38:50;;;;;;;1999.90;999.90;;;;;;;;;;4980804;28;20030;-85
2021/11/23 13:41:19;;;;;;;1999.90;999.90;;;;;;;;;;5012171;28;20042;-84
2021/11/23 13:43:50;;;;;;;1999.90;999.90;;;;;;;;;;4996671;28;20554;-83
2021/11/23 13:46:16;;;;;;;1999.90;999.90;;;;;;;;;;4996748;28;20496;-84